TimeCDT,TemperatureF,Dew PointF,Humidity,Sea Level PressureIn,VisibilityMPH,Wind Direction,Wind SpeedMPH,Gust SpeedMPH,PrecipitationIn,Events,Conditions,WindDirDegrees,DateUTC
12:16 AM,66.2,66.2,100,29.98,4.0,Calm,Calm,-,0.00,Rain,Light Rain,0,2012-09-17 05:16:00
12:24 AM,66.2,66.2,100,29.97,4.0,Calm,Calm,-,0.00,Rain,Light Rain,0,2012-09-17 05:24:00
12:43 AM,66.2,66.2,100,29.97,3.0,Calm,Calm,-,0.01,Rain,Light Rain,0,2012-09-17 05:43:00
12:53 AM,66.9,66.0,97,29.96,3.0,Calm,Calm,-,0.02,Rain,Light Rain,0,2012-09-17 05:53:00
1:27 AM,66.2,66.2,100,29.96,3.0,West,3.5,-,0.00,Rain,Light Rain,260,2012-09-17 06:27:00
1:34 AM,66.2,66.2,100,29.96,3.0,Calm,Calm,-,0.01,Rain,Light Rain,0,2012-09-17 06:34:00
1:53 AM,66.9,66.0,97,29.94,4.0,Calm,Calm,-,0.01,Rain,Light Rain,0,2012-09-17 06:53:00
2:25 AM,66.2,64.4,94,29.94,4.0,Calm,Calm,-,0.02,Rain,Light Rain,0,2012-09-17 07:25:00
2:53 AM,66.0,64.9,96,29.92,4.0,Calm,Calm,-,0.03,Rain,Light Rain,0,2012-09-17 07:53:00
3:02 AM,66.2,64.4,94,29.93,4.0,Calm,Calm,-,0.00,Rain,Light Rain,0,2012-09-17 08:02:00
3:10 AM,66.2,64.4,94,29.92,4.0,Calm,Calm,-,0.00,Rain,Light Rain,0,2012-09-17 08:10:00
3:53 AM,66.0,64.9,96,29.90,4.0,Calm,Calm,-,0.02,Rain,Light Rain,0,2012-09-17 08:53:00
4:02 AM,66.2,64.4,94,29.91,4.0,Calm,Calm,-,0.00,Rain,Light Rain,0,2012-09-17 09:02:00
4:40 AM,66.2,64.4,94,29.90,4.0,Calm,Calm,-,0.01,Rain,Light Rain,0,2012-09-17 09:40:00
4:53 AM,66.0,64.9,96,29.89,5.0,Calm,Calm,-,0.01,,Mostly Cloudy,0,2012-09-17 09:53:00
5:53 AM,66.0,64.9,96,29.89,5.0,Calm,Calm,-,0.00,,Clear,0,2012-09-17 10:53:00
6:53 AM,66.0,64.0,93,29.88,5.0,Calm,Calm,-,N/A,,Mostly Cloudy,0,2012-09-17 11:53:00
7:53 AM,66.0,64.9,96,29.90,5.0,West,3.5,-,N/A,,Overcast,260,2012-09-17 12:53:00
8:53 AM,66.0,64.9,96,29.90,7.0,Calm,Calm,-,N/A,,Overcast,0,2012-09-17 13:53:00
9:26 AM,66.2,64.4,94,29.91,6.0,Calm,Calm,-,N/A,,Overcast,0,2012-09-17 14:26:00
9:53 AM,66.9,66.0,97,29.90,8.0,Calm,Calm,-,N/A,,Overcast,0,2012-09-17 14:53:00
10:53 AM,69.1,66.0,90,29.88,10.0,Calm,Calm,-,N/A,,Overcast,0,2012-09-17 15:53:00
11:19 AM,69.8,66.2,88,29.89,10.0,Calm,Calm,-,N/A,,Overcast,0,2012-09-17 16:19:00
11:38 AM,69.8,66.2,88,29.88,10.0,NW,3.5,-,N/A,,Overcast,310,2012-09-17 16:38:00
11:53 AM,70.0,66.9,90,29.86,10.0,NW,3.5,-,N/A,,Mostly Cloudy,320,2012-09-17 16:53:00
12:53 PM,72.0,66.9,84,29.84,10.0,Calm,Calm,-,N/A,,Mostly Cloudy,0,2012-09-17 17:53:00
1:53 PM,73.0,66.9,81,29.83,10.0,Variable,3.5,-,N/A,,Overcast,0,2012-09-17 18:53:00
2:17 PM,75.2,66.2,73,29.83,10.0,NNW,5.8,-,N/A,,Overcast,330,2012-09-17 19:17:00
2:53 PM,75.0,66.0,73,29.81,10.0,Calm,Calm,-,N/A,,Overcast,0,2012-09-17 19:53:00
3:53 PM,77.0,64.9,66,29.78,10.0,Calm,Calm,-,N/A,,Overcast,0,2012-09-17 20:53:00
4:53 PM,75.0,66.0,73,29.78,10.0,ENE,4.6,-,N/A,,Overcast,70,2012-09-17 21:53:00
5:53 PM,75.9,66.9,74,29.78,10.0,Calm,Calm,-,N/A,,Scattered Clouds,0,2012-09-17 22:53:00
6:53 PM,73.9,66.9,79,29.78,10.0,SSE,3.5,-,N/A,,Partly Cloudy,150,2012-09-17 23:53:00
7:53 PM,71.1,68.0,90,29.79,10.0,Calm,Calm,-,N/A,,Mostly Cloudy,0,2012-09-18 00:53:00
8:53 PM,69.1,66.9,93,29.81,9.0,Calm,Calm,-,N/A,,Partly Cloudy,0,2012-09-18 01:53:00
9:33 PM,66.2,66.2,100,29.83,1.5,Calm,Calm,-,N/A,,Clear,0,2012-09-18 02:33:00
9:42 PM,66.2,66.2,100,29.83,0.5,Calm,Calm,-,N/A,Fog,Fog,0,2012-09-18 02:42:00
9:53 PM,66.9,66.0,97,29.83,0.5,Calm,Calm,-,N/A,Fog,Fog,0,2012-09-18 02:53:00
10:01 PM,66.2,66.2,100,29.84,2.0,Calm,Calm,-,N/A,,Partly Cloudy,0,2012-09-18 03:01:00
10:08 PM,66.2,66.2,100,29.84,7.0,Calm,Calm,-,N/A,,Scattered Clouds,0,2012-09-18 03:08:00
10:16 PM,66.2,66.2,100,29.84,1.5,Calm,Calm,-,N/A,,Partly Cloudy,0,2012-09-18 03:16:00
10:20 PM,66.2,64.4,94,29.84,0.5,Calm,Calm,-,N/A,Fog,Fog,0,2012-09-18 03:20:00
10:35 PM,66.2,66.2,100,29.84,1.0,Calm,Calm,-,N/A,,Mist,0,2012-09-18 03:35:00
10:49 PM,66.2,64.4,94,29.85,0.5,Calm,Calm,-,N/A,Fog,Fog,0,2012-09-18 03:49:00
10:53 PM,66.0,64.9,96,29.83,0.8,Calm,Calm,-,N/A,,Mist,0,2012-09-18 03:53:00
11:03 PM,66.2,64.4,94,29.85,0.5,Calm,Calm,-,N/A,Fog,Fog,0,2012-09-18 04:03:00
11:35 PM,64.4,64.4,100,29.84,2.0,Calm,Calm,-,N/A,,Partly Cloudy,0,2012-09-18 04:35:00
11:53 PM,64.0,63.0,96,29.84,2.5,Calm,Calm,-,N/A,,Clear,0,2012-09-18 04:53:00